sensor_id;sensor_type;location;lat;lon;timestamp;pressure;altitude;pressure_sealevel;temperature;humidity
48848;BME280;75039;51.970;5.660;2024-03-07T00:00:06;102649.88;;;8.85;60.32
48848;BME280;75039;51.970;5.660;2024-03-07T00:02:42;102651.69;;;8.84;60.32
48848;BME280;75039;51.970;5.660;2024-03-07T00:05:10;102649.94;;;8.83;60.20
48848;BME280;75039;51.970;5.660;2024-03-07T00:07:37;102651.81;;;8.81;60.35
48848;BME280;75039;51.970;5.660;2024-03-07T00:10:04;102651.84;;;8.80;60.38
48848;BME280;75039;51.970;5.660;2024-03-07T00:12:37;102649.22;;;8.78;60.47
48848;BME280;75039;51.970;5.660;2024-03-07T00:15:09;102643.88;;;8.78;60.26
48848;BME280;75039;51.970;5.660;2024-03-07T00:17:37;102648.41;;;8.76;60.50
48848;BME280;75039;51.970;5.660;2024-03-07T00:20:06;102651.97;;;8.77;60.52
48848;BME280;75039;51.970;5.660;2024-03-07T00:22:36;102652.88;;;8.76;60.57
48848;BME280;75039;51.970;5.660;2024-03-07T00:25:04;102649.34;;;8.75;60.64
48848;BME280;75039;51.970;5.660;2024-03-07T00:27:36;102655.63;;;8.74;60.82
48848;BME280;75039;51.970;5.660;2024-03-07T00:30:04;102659.22;;;8.73;60.66
48848;BME280;75039;51.970;5.660;2024-03-07T00:32:31;102653.00;;;8.73;60.66
48848;BME280;75039;51.970;5.660;2024-03-07T00:35:02;102654.81;;;8.72;60.69
48848;BME280;75039;51.970;5.660;2024-03-07T00:37:30;102659.28;;;8.72;60.54
48848;BME280;75039;51.970;5.660;2024-03-07T00:39:59;102658.41;;;8.71;60.55
48848;BME280;75039;51.970;5.660;2024-03-07T00:42:27;102660.25;;;8.69;60.75
48848;BME280;75039;51.970;5.660;2024-03-07T00:44:55;102654.03;;;8.69;60.61
48848;BME280;75039;51.970;5.660;2024-03-07T00:47:22;102651.41;;;8.67;60.65
48848;BME280;75039;51.970;5.660;2024-03-07T00:49:50;102653.25;;;8.65;60.77
48848;BME280;75039;51.970;5.660;2024-03-07T00:52:17;102655.94;;;8.65;60.75
48848;BME280;75039;51.970;5.660;2024-03-07T00:54:43;102655.88;;;8.67;60.83
48848;BME280;75039;51.970;5.660;2024-03-07T00:57:10;102648.78;;;8.66;60.83
48848;BME280;75039;51.970;5.660;2024-03-07T00:59:37;102652.28;;;8.68;60.62
48848;BME280;75039;51.970;5.660;2024-03-07T01:02:04;102644.13;;;8.71;60.55
48848;BME280;75039;51.970;5.660;2024-03-07T01:04:30;102652.06;;;8.74;60.63
48848;BME280;75039;51.970;5.660;2024-03-07T01:06:59;102648.41;;;8.76;60.64
48848;BME280;75039;51.970;5.660;2024-03-07T01:09:27;102647.38;;;8.80;60.61
48848;BME280;75039;51.970;5.660;2024-03-07T01:11:55;102646.38;;;8.83;60.81
48848;BME280;75039;51.970;5.660;2024-03-07T01:14:22;102649.00;;;8.84;60.71
48848;BME280;75039;51.970;5.660;2024-03-07T01:16:49;102651.69;;;8.84;60.40
48848;BME280;75039;51.970;5.660;2024-03-07T01:19:16;102649.00;;;8.84;60.56
48848;BME280;75039;51.970;5.660;2024-03-07T01:21:43;102649.94;;;8.83;60.42
48848;BME280;75039;51.970;5.660;2024-03-07T01:24:10;102647.38;;;8.80;60.45
48848;BME280;75039;51.970;5.660;2024-03-07T01:26:37;102645.78;;;8.75;60.31
48848;BME280;75039;51.970;5.660;2024-03-07T01:29:03;102642.34;;;8.71;60.46
48848;BME280;75039;51.970;5.660;2024-03-07T01:31:34;102648.69;;;8.69;60.43
48848;BME280;75039;51.970;5.660;2024-03-07T01:34:00;102634.50;;;8.65;60.20
48848;BME280;75039;51.970;5.660;2024-03-07T01:36:27;102638.22;;;8.61;60.47
48848;BME280;75039;51.970;5.660;2024-03-07T01:38:54;102636.56;;;8.57;60.54
48848;BME280;75039;51.970;5.660;2024-03-07T01:41:20;102637.56;;;8.54;60.31
48848;BME280;75039;51.970;5.660;2024-03-07T01:43:47;102638.66;;;8.49;60.48
48848;BME280;75039;51.970;5.660;2024-03-07T01:46:14;102631.59;;;8.46;60.61
48848;BME280;75039;51.970;5.660;2024-03-07T01:48:41;102629.00;;;8.43;60.46
48848;BME280;75039;51.970;5.660;2024-03-07T01:51:08;102617.53;;;8.40;60.53
48848;BME280;75039;51.970;5.660;2024-03-07T01:53:35;102626.50;;;8.39;60.41
48848;BME280;75039;51.970;5.660;2024-03-07T01:56:03;102621.19;;;8.37;60.63
48848;BME280;75039;51.970;5.660;2024-03-07T01:58:31;102622.16;;;8.35;60.50
48848;BME280;75039;51.970;5.660;2024-03-07T02:00:59;102626.72;;;8.31;60.75
48848;BME280;75039;51.970;5.660;2024-03-07T02:03:27;102625.94;;;8.27;60.67
48848;BME280;75039;51.970;5.660;2024-03-07T02:05:53;102618.94;;;8.23;60.61
48848;BME280;75039;51.970;5.660;2024-03-07T02:08:21;102621.72;;;8.20;60.57
48848;BME280;75039;51.970;5.660;2024-03-07T02:10:48;102623.59;;;8.17;60.79
48848;BME280;75039;51.970;5.660;2024-03-07T02:13:16;102625.50;;;8.13;60.82
48848;BME280;75039;51.970;5.660;2024-03-07T02:15:43;102618.53;;;8.08;60.74
48848;BME280;75039;51.970;5.660;2024-03-07T02:18:10;102615.09;;;8.04;60.70
48848;BME280;75039;51.970;5.660;2024-03-07T02:20:37;102615.19;;;8.01;60.81
48848;BME280;75039;51.970;5.660;2024-03-07T02:23:05;102613.47;;;7.98;60.74
48848;BME280;75039;51.970;5.660;2024-03-07T02:25:32;102618.88;;;7.97;60.95
48848;BME280;75039;51.970;5.660;2024-03-07T02:27:59;102617.19;;;7.94;60.96
48848;BME280;75039;51.970;5.660;2024-03-07T02:30:26;102612.81;;;7.92;60.96
48848;BME280;75039;51.970;5.660;2024-03-07T02:32:52;102612.84;;;7.90;60.81
48848;BME280;75039;51.970;5.660;2024-03-07T02:35:22;102612.03;;;7.88;60.93
48848;BME280;75039;51.970;5.660;2024-03-07T02:37:50;102610.28;;;7.87;60.76
48848;BME280;75039;51.970;5.660;2024-03-07T02:40:17;102611.16;;;7.88;60.95
48848;BME280;75039;51.970;5.660;2024-03-07T02:42:44;102612.84;;;7.90;60.88
48848;BME280;75039;51.970;5.660;2024-03-07T02:45:10;102612.84;;;7.90;61.40
48848;BME280;75039;51.970;5.660;2024-03-07T02:47:42;102610.13;;;7.92;61.10
48848;BME280;75039;51.970;5.660;2024-03-07T02:50:10;102606.59;;;7.91;61.07
48848;BME280;75039;51.970;5.660;2024-03-07T02:52:38;102600.34;;;7.91;61.14
48848;BME280;75039;51.970;5.660;2024-03-07T02:55:05;102596.75;;;7.92;61.07
48848;BME280;75039;51.970;5.660;2024-03-07T02:57:32;102610.97;;;7.94;60.94
48848;BME280;75039;51.970;5.660;2024-03-07T02:59:59;102609.16;;;7.94;60.92
48848;BME280;75039;51.970;5.660;2024-03-07T03:02:26;102601.22;;;7.91;61.11
48848;BME280;75039;51.970;5.660;2024-03-07T03:04:53;102604.00;;;7.88;60.92
48848;BME280;75039;51.970;5.660;2024-03-07T03:07:21;102597.88;;;7.85;60.80
48848;BME280;75039;51.970;5.660;2024-03-07T03:09:48;102600.66;;;7.82;61.07
48848;BME280;75039;51.970;5.660;2024-03-07T03:12:15;102605.16;;;7.80;61.18
48848;BME280;75039;51.970;5.660;2024-03-07T03:14:42;102587.38;;;7.79;61.19
48848;BME280;75039;51.970;5.660;2024-03-07T03:17:10;102582.91;;;7.79;60.94
48848;BME280;75039;51.970;5.660;2024-03-07T03:19:37;102583.63;;;7.84;61.17
48848;BME280;75039;51.970;5.660;2024-03-07T03:22:04;102577.25;;;7.88;61.01
48848;BME280;75039;51.970;5.660;2024-03-07T03:24:31;102583.31;;;7.93;61.05
48848;BME280;75039;51.970;5.660;2024-03-07T03:26:58;102582.31;;;7.97;60.92
48848;BME280;75039;51.970;5.660;2024-03-07T03:29:25;102574.22;;;7.99;60.76
48848;BME280;75039;51.970;5.660;2024-03-07T03:31:56;102576.81;;;8.02;60.88
48848;BME280;75039;51.970;5.660;2024-03-07T03:34:23;102567.84;;;8.03;60.99
48848;BME280;75039;51.970;5.660;2024-03-07T03:36:51;102566.09;;;8.02;60.87
48848;BME280;75039;51.970;5.660;2024-03-07T03:39:17;102574.13;;;8.02;60.80
48848;BME280;75039;51.970;5.660;2024-03-07T03:41:47;102575.97;;;8.00;60.68
48848;BME280;75039;51.970;5.660;2024-03-07T03:44:14;102569.75;;;8.00;60.64
48848;BME280;75039;51.970;5.660;2024-03-07T03:46:41;102566.19;;;7.99;60.73
48848;BME280;75039;51.970;5.660;2024-03-07T03:49:08;102573.41;;;7.97;60.54
48848;BME280;75039;51.970;5.660;2024-03-07T03:51:34;102575.34;;;7.92;60.49
48848;BME280;75039;51.970;5.660;2024-03-07T03:54:01;102568.44;;;7.85;60.55
48848;BME280;75039;51.970;5.660;2024-03-07T03:56:28;102568.59;;;7.80;60.36
48848;BME280;75039;51.970;5.660;2024-03-07T03:58:55;102566.13;;;7.74;60.57
48848;BME280;75039;51.970;5.660;2024-03-07T04:01:22;102564.47;;;7.70;60.52
48848;BME280;75039;51.970;5.660;2024-03-07T04:03:50;102561.06;;;7.65;60.54
48848;BME280;75039;51.970;5.660;2024-03-07T04:06:18;102570.06;;;7.62;60.69
48848;BME280;75039;51.970;5.660;2024-03-07T04:08:45;102567.47;;;7.59;60.83
48848;BME280;75039;51.970;5.660;2024-03-07T04:11:12;102566.59;;;7.59;60.86
48848;BME280;75039;51.970;5.660;2024-03-07T04:13:39;102562.22;;;7.56;60.96
48848;BME280;75039;51.970;5.660;2024-03-07T04:16:05;102566.69;;;7.56;61.06
48848;BME280;75039;51.970;5.660;2024-03-07T04:18:32;102558.69;;;7.56;61.27
48848;BME280;75039;51.970;5.660;2024-03-07T04:20:59;102563.16;;;7.55;61.33
48848;BME280;75039;51.970;5.660;2024-03-07T04:23:26;102558.69;;;7.56;61.23
48848;BME280;75039;51.970;5.660;2024-03-07T04:25:55;102556.00;;;7.56;61.29
48848;BME280;75039;51.970;5.660;2024-03-07T04:28:22;102556.94;;;7.55;61.27
48848;BME280;75039;51.970;5.660;2024-03-07T04:30:49;102556.09;;;7.53;61.19
48848;BME280;75039;51.970;5.660;2024-03-07T04:33:16;102560.63;;;7.51;61.44
48848;BME280;75039;51.970;5.660;2024-03-07T04:35:43;102557.13;;;7.49;61.35
48848;BME280;75039;51.970;5.660;2024-03-07T04:38:10;102551.88;;;7.46;61.71
48848;BME280;75039;51.970;5.660;2024-03-07T04:40:42;102549.25;;;7.44;61.33
48848;BME280;75039;51.970;5.660;2024-03-07T04:43:08;102551.03;;;7.44;61.51
48848;BME280;75039;51.970;5.660;2024-03-07T04:45:35;102549.34;;;7.40;61.76
48848;BME280;75039;51.970;5.660;2024-03-07T04:48:03;102550.31;;;7.37;61.54
48848;BME280;75039;51.970;5.660;2024-03-07T04:50:32;102550.38;;;7.36;61.68
48848;BME280;75039;51.970;5.660;2024-03-07T04:52:59;102551.28;;;7.34;61.67
48848;BME280;75039;51.970;5.660;2024-03-07T04:55:25;102544.19;;;7.33;61.72
48848;BME280;75039;51.970;5.660;2024-03-07T04:57:52;102540.66;;;7.33;61.66
48848;BME280;75039;51.970;5.660;2024-03-07T05:00:19;102541.56;;;7.32;61.76
48848;BME280;75039;51.970;5.660;2024-03-07T05:02:48;102542.53;;;7.29;61.85
48848;BME280;75039;51.970;5.660;2024-03-07T05:05:17;102542.59;;;7.28;61.75
48848;BME280;75039;51.970;5.660;2024-03-07T05:07:52;102550.59;;;7.28;61.67
48848;BME280;75039;51.970;5.660;2024-03-07T05:10:20;102546.22;;;7.25;61.87
48848;BME280;75039;51.970;5.660;2024-03-07T05:12:47;102562.31;;;7.24;61.86
48848;BME280;75039;51.970;5.660;2024-03-07T05:15:14;102558.75;;;7.23;61.80
48848;BME280;75039;51.970;5.660;2024-03-07T05:17:41;102558.75;;;7.23;61.81
48848;BME280;75039;51.970;5.660;2024-03-07T05:20:10;102556.03;;;7.25;61.75
48848;BME280;75039;51.970;5.660;2024-03-07T05:22:38;102558.66;;;7.26;62.01
48848;BME280;75039;51.970;5.660;2024-03-07T05:25:13;102549.78;;;7.26;61.95
48848;BME280;75039;51.970;5.660;2024-03-07T05:27:42;102567.56;;;7.27;62.08
48848;BME280;75039;51.970;5.660;2024-03-07T05:30:08;102572.84;;;7.28;61.75
48848;BME280;75039;51.970;5.660;2024-03-07T05:32:38;102563.13;;;7.26;61.74
48848;BME280;75039;51.970;5.660;2024-03-07T05:35:06;102568.47;;;7.26;61.68
48848;BME280;75039;51.970;5.660;2024-03-07T05:37:33;102567.59;;;7.25;61.77
48848;BME280;75039;51.970;5.660;2024-03-07T05:40:00;102559.63;;;7.24;61.69
48848;BME280;75039;51.970;5.660;2024-03-07T05:42:29;102557.00;;;7.22;61.69
48848;BME280;75039;51.970;5.660;2024-03-07T05:44:58;102561.56;;;7.19;61.60
48848;BME280;75039;51.970;5.660;2024-03-07T05:47:25;102560.78;;;7.15;61.57
48848;BME280;75039;51.970;5.660;2024-03-07T05:49:52;102558.19;;;7.12;61.79
48848;BME280;75039;51.970;5.660;2024-03-07T05:52:19;102558.28;;;7.09;61.83
48848;BME280;75039;51.970;5.660;2024-03-07T05:54:46;102561.94;;;7.07;61.57
48848;BME280;75039;51.970;5.660;2024-03-07T05:57:13;102556.63;;;7.05;62.05
48848;BME280;75039;51.970;5.660;2024-03-07T05:59:39;102557.59;;;7.03;61.66
48848;BME280;75039;51.970;5.660;2024-03-07T06:02:06;102560.28;;;7.03;61.80
48848;BME280;75039;51.970;5.660;2024-03-07T06:04:33;102566.53;;;7.01;61.92
48848;BME280;75039;51.970;5.660;2024-03-07T06:07:01;102571.00;;;7.01;61.92
48848;BME280;75039;51.970;5.660;2024-03-07T06:09:28;102569.28;;;6.98;61.69
48848;BME280;75039;51.970;5.660;2024-03-07T06:11:55;102564.88;;;6.97;61.79
48848;BME280;75039;51.970;5.660;2024-03-07T06:14:22;102563.16;;;6.95;61.96
48848;BME280;75039;51.970;5.660;2024-03-07T06:16:51;102565.88;;;6.93;61.83
48848;BME280;75039;51.970;5.660;2024-03-07T06:19:19;102557.94;;;6.90;61.93
48848;BME280;75039;51.970;5.660;2024-03-07T06:21:46;102558.00;;;6.89;61.98
48848;BME280;75039;51.970;5.660;2024-03-07T06:24:13;102563.38;;;6.87;61.93
48848;BME280;75039;51.970;5.660;2024-03-07T06:26:41;102560.72;;;6.87;61.97
48848;BME280;75039;51.970;5.660;2024-03-07T06:29:13;102561.63;;;6.86;62.00
48848;BME280;75039;51.970;5.660;2024-03-07T06:31:40;102556.34;;;6.85;61.99
48848;BME280;75039;51.970;5.660;2024-03-07T06:34:10;102566.19;;;6.83;61.84
48848;BME280;75039;51.970;5.660;2024-03-07T06:36:37;102570.66;;;6.82;62.02
48848;BME280;75039;51.970;5.660;2024-03-07T06:39:03;102572.47;;;6.80;61.97
48848;BME280;75039;51.970;5.660;2024-03-07T06:41:33;102559.13;;;6.80;61.99
48848;BME280;75039;51.970;5.660;2024-03-07T06:44:03;102570.69;;;6.81;61.95
48848;BME280;75039;51.970;5.660;2024-03-07T06:46:29;102560.94;;;6.80;61.89
48848;BME280;75039;51.970;5.660;2024-03-07T06:48:57;102560.06;;;6.79;61.95
48848;BME280;75039;51.970;5.660;2024-03-07T06:51:24;102557.44;;;6.78;62.02
48848;BME280;75039;51.970;5.660;2024-03-07T06:53:51;102566.31;;;6.78;62.04
48848;BME280;75039;51.970;5.660;2024-03-07T06:56:18;102561.88;;;6.77;61.92
48848;BME280;75039;51.970;5.660;2024-03-07T06:58:45;102564.56;;;6.77;61.96
48848;BME280;75039;51.970;5.660;2024-03-07T07:01:13;102555.66;;;6.77;62.09
48848;BME280;75039;51.970;5.660;2024-03-07T07:03:43;102553.88;;;6.77;62.00
48848;BME280;75039;51.970;5.660;2024-03-07T07:06:11;102554.75;;;6.78;62.10
48848;BME280;75039;51.970;5.660;2024-03-07T07:08:38;102549.41;;;6.78;61.92
48848;BME280;75039;51.970;5.660;2024-03-07T07:11:05;102550.28;;;6.78;61.93
48848;BME280;75039;51.970;5.660;2024-03-07T07:13:32;102547.63;;;6.78;62.14
48848;BME280;75039;51.970;5.660;2024-03-07T07:15:59;102549.38;;;6.79;62.17
48848;BME280;75039;51.970;5.660;2024-03-07T07:18:26;102553.69;;;6.83;62.32
48848;BME280;75039;51.970;5.660;2024-03-07T07:20:52;102550.03;;;6.87;62.05
48848;BME280;75039;51.970;5.660;2024-03-07T07:23:20;102545.47;;;6.91;62.19
48848;BME280;75039;51.970;5.660;2024-03-07T07:25:47;102548.00;;;6.95;61.92
48848;BME280;75039;51.970;5.660;2024-03-07T07:28:14;102559.47;;;6.99;62.09
48848;BME280;75039;51.970;5.660;2024-03-07T07:30:42;102552.25;;;7.03;62.04
48848;BME280;75039;51.970;5.660;2024-03-07T07:33:12;102539.69;;;7.06;62.02
48848;BME280;75039;51.970;5.660;2024-03-07T07:35:41;102552.03;;;7.10;62.05
48848;BME280;75039;51.970;5.660;2024-03-07T07:38:08;102549.22;;;7.15;62.07
48848;BME280;75039;51.970;5.660;2024-03-07T07:40:37;102551.72;;;7.21;62.00
48848;BME280;75039;51.970;5.660;2024-03-07T07:43:04;102545.34;;;7.25;61.93
48848;BME280;75039;51.970;5.660;2024-03-07T07:45:31;102545.22;;;7.29;61.83
48848;BME280;75039;51.970;5.660;2024-03-07T07:47:59;102551.28;;;7.34;61.81
48848;BME280;75039;51.970;5.660;2024-03-07T07:50:26;102549.34;;;7.40;61.88
48848;BME280;75039;51.970;5.660;2024-03-07T07:52:55;102544.78;;;7.45;61.71
48848;BME280;75039;51.970;5.660;2024-03-07T07:55:25;102545.59;;;7.47;61.49
48848;BME280;75039;51.970;5.660;2024-03-07T07:57:54;102546.38;;;7.50;61.52
48848;BME280;75039;51.970;5.660;2024-03-07T08:00:23;102550.66;;;7.56;61.46
48848;BME280;75039;51.970;5.660;2024-03-07T08:02:57;102553.19;;;7.60;61.35
48848;BME280;75039;51.970;5.660;2024-03-07T08:05:32;102551.19;;;7.67;61.42
48848;BME280;75039;51.970;5.660;2024-03-07T08:08:04;102546.53;;;7.74;61.23
48848;BME280;75039;51.970;5.660;2024-03-07T08:10:34;102540.06;;;7.81;61.30
48848;BME280;75039;51.970;5.660;2024-03-07T08:13:03;102544.31;;;7.86;61.11
48848;BME280;75039;51.970;5.660;2024-03-07T08:15:30;102546.81;;;7.92;60.99
48848;BME280;75039;51.970;5.660;2024-03-07T08:17:58;102542.19;;;7.97;60.94
48848;BME280;75039;51.970;5.660;2024-03-07T08:20:26;102546.44;;;8.03;60.67
48848;BME280;75039;51.970;5.660;2024-03-07T08:22:54;102548.00;;;8.10;60.81
48848;BME280;75039;51.970;5.660;2024-03-07T08:25:26;102552.19;;;8.17;60.67
48848;BME280;75039;51.970;5.660;2024-03-07T08:27:54;102559.09;;;8.26;60.54
48848;BME280;75039;51.970;5.660;2024-03-07T08:30:21;102557.91;;;8.35;60.46
48848;BME280;75039;51.970;5.660;2024-03-07T08:32:51;102555.03;;;8.41;60.33
48848;BME280;75039;51.970;5.660;2024-03-07T08:35:22;102548.53;;;8.48;59.89
48848;BME280;75039;51.970;5.660;2024-03-07T08:37:51;102550.94;;;8.55;60.03
48848;BME280;75039;51.970;5.660;2024-03-07T08:40:23;102547.13;;;8.63;59.88
48848;BME280;75039;51.970;5.660;2024-03-07T08:42:55;102545.03;;;8.71;59.72
48848;BME280;75039;51.970;5.660;2024-03-07T08:45:23;102544.69;;;8.80;59.65
48848;BME280;75039;51.970;5.660;2024-03-07T08:47:51;102539.00;;;8.89;59.35
48848;BME280;75039;51.970;5.660;2024-03-07T08:50:19;102537.88;;;8.96;59.32
48848;BME280;75039;51.970;5.660;2024-03-07T08:52:48;102541.09;;;9.06;59.12
48848;BME280;75039;51.970;5.660;2024-03-07T08:55:22;102538.16;;;9.12;58.96
48848;BME280;75039;51.970;5.660;2024-03-07T08:57:49;102534.31;;;9.19;58.67
48848;BME280;75039;51.970;5.660;2024-03-07T09:00:19;102526.03;;;9.25;58.54
48848;BME280;75039;51.970;5.660;2024-03-07T09:02:56;102527.53;;;9.32;58.64
48848;BME280;75039;51.970;5.660;2024-03-07T09:05:30;102531.69;;;9.41;58.27
48848;BME280;75039;51.970;5.660;2024-03-07T09:08:00;102526.88;;;9.49;57.94
48848;BME280;75039;51.970;5.660;2024-03-07T09:10:27;102526.56;;;9.56;58.17
48848;BME280;75039;51.970;5.660;2024-03-07T09:12:57;102523.50;;;9.67;58.31
48848;BME280;75039;51.970;5.660;2024-03-07T09:15:23;102520.44;;;9.76;57.88
48848;BME280;75039;51.970;5.660;2024-03-07T09:17:51;102518.25;;;9.86;57.67
48848;BME280;75039;51.970;5.660;2024-03-07T09:20:20;102516.03;;;9.96;57.66
48848;BME280;75039;51.970;5.660;2024-03-07T09:22:47;102517.47;;;10.04;57.25
48848;BME280;75039;51.970;5.660;2024-03-07T09:25:16;102508.16;;;10.13;56.79
48848;BME280;75039;51.970;5.660;2024-03-07T09:27:44;102512.44;;;10.17;56.41
48848;BME280;75039;51.970;5.660;2024-03-07T09:30:11;102508.66;;;10.23;56.29
48848;BME280;75039;51.970;5.660;2024-03-07T09:32:50;102511.09;;;10.29;56.07
48848;BME280;75039;51.970;5.660;2024-03-07T09:35:18;102507.13;;;10.37;55.65
48848;BME280;75039;51.970;5.660;2024-03-07T09:37:44;102506.97;;;10.42;55.29
48848;BME280;75039;51.970;5.660;2024-03-07T09:40:12;102513.06;;;10.45;54.94
48848;BME280;75039;51.970;5.660;2024-03-07T09:42:48;102505.66;;;10.50;54.84
48848;BME280;75039;51.970;5.660;2024-03-07T09:45:18;102497.34;;;10.57;55.08
48848;BME280;75039;51.970;5.660;2024-03-07T09:47:49;102499.69;;;10.64;54.75
48848;BME280;75039;51.970;5.660;2024-03-07T09:50:19;102498.53;;;10.70;55.05
48848;BME280;75039;51.970;5.660;2024-03-07T09:52:49;102487.72;;;10.71;55.02
48848;BME280;75039;51.970;5.660;2024-03-07T09:55:19;102490.19;;;10.76;54.70
48848;BME280;75039;51.970;5.660;2024-03-07T09:57:47;102492.00;;;10.75;54.48
48848;BME280;75039;51.970;5.660;2024-03-07T10:00:18;102493.63;;;10.79;54.53
48848;BME280;75039;51.970;5.660;2024-03-07T10:03:05;102491.78;;;10.80;54.05
48848;BME280;75039;51.970;5.660;2024-03-07T10:05:33;102479.31;;;10.79;54.07
48848;BME280;75039;51.970;5.660;2024-03-07T10:08:00;102477.47;;;10.79;54.32
48848;BME280;75039;51.970;5.660;2024-03-07T10:10:28;102463.91;;;10.82;53.88
48848;BME280;75039;51.970;5.660;2024-03-07T10:12:57;102460.13;;;10.87;53.47
48848;BME280;75039;51.970;5.660;2024-03-07T10:15:32;102466.31;;;10.89;53.22
48848;BME280;75039;51.970;5.660;2024-03-07T10:18:00;102475.03;;;10.94;52.66
48848;BME280;75039;51.970;5.660;2024-03-07T10:20:28;102466.75;;;10.98;51.96
48848;BME280;75039;51.970;5.660;2024-03-07T10:22:55;102472.72;;;11.05;51.96
48848;BME280;75039;51.970;5.660;2024-03-07T10:25:23;102464.34;;;11.11;51.99
48848;BME280;75039;51.970;5.660;2024-03-07T10:27:55;102467.59;;;11.19;51.58
48848;BME280;75039;51.970;5.660;2024-03-07T10:30:24;102468.09;;;11.27;51.68
48848;BME280;75039;51.970;5.660;2024-03-07T10:32:56;102459.56;;;11.36;51.41
48848;BME280;75039;51.970;5.660;2024-03-07T10:35:26;102476.28;;;11.43;51.43
48848;BME280;75039;51.970;5.660;2024-03-07T10:37:54;102467.97;;;11.48;51.10
48848;BME280;75039;51.970;5.660;2024-03-07T10:40:23;102466.09;;;11.50;51.00
48848;BME280;75039;51.970;5.660;2024-03-07T10:42:56;102468.78;;;11.50;50.87
48848;BME280;75039;51.970;5.660;2024-03-07T10:45:28;102460.72;;;11.50;51.07
48848;BME280;75039;51.970;5.660;2024-03-07T10:47:57;102462.44;;;11.51;50.80
48848;BME280;75039;51.970;5.660;2024-03-07T10:51:16;102460.41;;;11.56;50.86
48848;BME280;75039;51.970;5.660;2024-03-07T10:56:53;102458.66;;;11.55;50.66
48848;BME280;75039;51.970;5.660;2024-03-07T10:59:25;102458.88;;;11.50;50.43
48848;BME280;75039;51.970;5.660;2024-03-07T11:04:50;102444.06;;;11.41;49.90
48848;BME280;75039;51.970;5.660;2024-03-07T11:07:23;102451.34;;;11.39;49.85
48848;BME280;75039;51.970;5.660;2024-03-07T11:09:52;102453.00;;;11.42;50.28
48848;BME280;75039;51.970;5.660;2024-03-07T11:12:21;102439.34;;;11.46;50.52
48848;BME280;75039;51.970;5.660;2024-03-07T11:14:50;102444.72;;;11.46;50.21
48848;BME280;75039;51.970;5.660;2024-03-07T11:17:21;102447.47;;;11.45;50.04
48848;BME280;75039;51.970;5.660;2024-03-07T11:19:48;102443.06;;;11.44;49.83
48848;BME280;75039;51.970;5.660;2024-03-07T11:22:32;102434.25;;;11.40;50.24
48848;BME280;75039;51.970;5.660;2024-03-07T11:25:02;102436.00;;;11.41;50.26
48848;BME280;75039;51.970;5.660;2024-03-07T11:27:36;102438.69;;;11.41;49.89
48848;BME280;75039;51.970;5.660;2024-03-07T11:30:06;102431.50;;;11.42;50.34
48848;BME280;75039;51.970;5.660;2024-03-07T11:32:35;102431.41;;;11.43;50.18
48848;BME280;75039;51.970;5.660;2024-03-07T11:35:05;102431.19;;;11.48;49.84
48848;BME280;75039;51.970;5.660;2024-03-07T11:37:38;102427.41;;;11.52;49.88
48848;BME280;75039;51.970;5.660;2024-03-07T11:43:02;102412.78;;;11.58;49.93
48848;BME280;75039;51.970;5.660;2024-03-07T11:45:32;102422.34;;;11.63;50.16
48848;BME280;75039;51.970;5.660;2024-03-07T11:48:18;102408.59;;;11.69;50.01
48848;BME280;75039;51.970;5.660;2024-03-07T11:50:47;102400.34;;;11.72;49.98
48848;BME280;75039;51.970;5.660;2024-03-07T11:53:14;102400.28;;;11.74;49.89
48848;BME280;75039;51.970;5.660;2024-03-07T11:55:41;102401.06;;;11.76;49.70
48848;BME280;75039;51.970;5.660;2024-03-07T12:00:41;102384.41;;;11.87;48.89
48848;BME280;75039;51.970;5.660;2024-03-07T12:03:16;102383.16;;;11.94;49.17
48848;BME280;75039;51.970;5.660;2024-03-07T12:05:51;102364.22;;;11.95;48.32
48848;BME280;75039;51.970;5.660;2024-03-07T12:08:18;102381.34;;;11.94;48.10
48848;BME280;75039;51.970;5.660;2024-03-07T12:10:50;102377.69;;;11.95;48.22
48848;BME280;75039;51.970;5.660;2024-03-07T12:13:22;102363.13;;;11.99;48.32
48848;BME280;75039;51.970;5.660;2024-03-07T12:15:51;102363.75;;;12.04;48.45
48848;BME280;75039;51.970;5.660;2024-03-07T12:18:19;102351.06;;;12.06;48.72
48848;BME280;75039;51.970;5.660;2024-03-07T12:20:47;102356.22;;;12.11;48.33
48848;BME280;75039;51.970;5.660;2024-03-07T12:23:18;102349.63;;;12.17;48.21
48848;BME280;75039;51.970;5.660;2024-03-07T12:25:59;102355.53;;;12.23;47.49
48848;BME280;75039;51.970;5.660;2024-03-07T12:28:25;102354.19;;;12.32;47.88
48848;BME280;75039;51.970;5.660;2024-03-07T12:30:56;102335.94;;;12.37;47.65
48848;BME280;75039;51.970;5.660;2024-03-07T12:33:23;102347.31;;;12.42;47.77
48848;BME280;75039;51.970;5.660;2024-03-07T12:35:54;102333.59;;;12.47;47.78
48848;BME280;75039;51.970;5.660;2024-03-07T12:38:28;102341.44;;;12.51;47.26
48848;BME280;75039;51.970;5.660;2024-03-07T12:41:06;102321.44;;;12.55;47.25
48848;BME280;75039;51.970;5.660;2024-03-07T12:43:34;102316.56;;;12.62;47.52
48848;BME280;75039;51.970;5.660;2024-03-07T12:46:01;102316.34;;;12.66;47.23
48848;BME280;75039;51.970;5.660;2024-03-07T12:48:31;102315.03;;;12.73;47.47
48848;BME280;75039;51.970;5.660;2024-03-07T12:50:58;102316.44;;;12.81;47.52
48848;BME280;75039;51.970;5.660;2024-03-07T12:53:25;102302.78;;;12.84;47.57
48848;BME280;75039;51.970;5.660;2024-03-07T12:55:52;102296.44;;;12.85;47.40
48848;BME280;75039;51.970;5.660;2024-03-07T12:58:19;102288.44;;;12.83;47.37
48848;BME280;75039;51.970;5.660;2024-03-07T13:00:49;102290.84;;;12.88;47.34
48848;BME280;75039;51.970;5.660;2024-03-07T13:03:15;102297.03;;;12.90;47.25
48848;BME280;75039;51.970;5.660;2024-03-07T13:05:42;102297.91;;;12.90;47.44
48848;BME280;75039;51.970;5.660;2024-03-07T13:08:10;102288.41;;;12.99;47.37
48848;BME280;75039;51.970;5.660;2024-03-07T13:10:42;102295.44;;;13.01;47.50
48848;BME280;75039;51.970;5.660;2024-03-07T13:13:10;102286.41;;;13.02;47.67
48848;BME280;75039;51.970;5.660;2024-03-07T13:15:38;102281.00;;;13.02;47.46